Time;durP1;ratioP1;P1;durP2;ratioP2;P2;SDS_P1;SDS_P2;PMS_P1;PMS_P2;Temp;Humidity;BMP_temperature;BMP_pressure;BME280_temperature;BME280_humidity;BME280_pressure;Samples;Min_cycle;Max_cycle;Signal;HPM_P1;HPM_P2
2021/07/24 00:02:12;;;;;;;11.15;8.38;;;;;;;20.00;56.46;94964.34;4957546;28;20032;-79
2021/07/24 00:04:44;;;;;;;12.75;8.57;;;;;;;19.96;56.58;94964.16;4955635;29;20043;-80
2021/07/24 00:07:12;;;;;;;12.25;8.27;;;;;;;19.94;56.34;94968.16;4955172;28;20030;-78
2021/07/24 00:09:38;;;;;;;11.35;8.25;;;;;;;19.91;55.83;94968.72;4954732;29;20039;-79
2021/07/24 00:12:04;;;;;;;17.90;8.25;;;;;;;19.84;55.46;94965.63;4957085;28;20503;-80
2021/07/24 00:14:29;;;;;;;13.57;7.90;;;;;;;19.74;55.56;94961.31;4957193;29;20407;-80
2021/07/24 00:17:01;;;;;;;14.57;8.80;;;;;;;19.71;55.81;94960.03;4908051;29;20121;-79
2021/07/24 00:19:51;;;;;;;8.82;7.72;;;;;;;19.71;56.15;94960.03;4962344;29;20119;-78
2021/07/24 00:22:17;;;;;;;17.27;9.15;;;;;;;19.68;56.87;94968.50;4955545;28;20035;-79
2021/07/24 00:24:42;;;;;;;14.65;10.05;;;;;;;19.65;57.22;94963.00;4956908;29;20039;-80
2021/07/24 00:27:08;;;;;;;18.50;9.40;;;;;;;19.63;57.29;94963.28;4956991;28;20035;-79
2021/07/24 00:29:34;;;;;;;24.60;9.23;;;;;;;19.65;57.20;94957.72;4940542;29;20608;-79
2021/07/24 00:31:59;;;;;;;17.40;9.05;;;;;;;19.64;57.53;94964.06;4955794;28;20035;-79
2021/07/24 00:34:25;;;;;;;20.55;11.55;;;;;;;19.62;57.40;94961.72;4952716;29;20037;-79
2021/07/24 00:36:50;;;;;;;27.35;14.55;;;;;;;19.58;57.53;94966.00;4955296;28;20039;-79
2021/07/24 00:39:16;;;;;;;31.02;16.15;;;;;;;19.54;57.46;94959.75;4956940;29;20035;-80
2021/07/24 00:41:51;;;;;;;25.95;13.23;;;;;;;19.51;57.50;94965.53;4956333;28;20052;-79
2021/07/24 00:44:17;;;;;;;30.20;15.55;;;;;;;19.48;57.63;94966.88;4936901;29;20090;-80
2021/07/24 00:46:44;;;;;;;39.63;17.13;;;;;;;19.46;57.48;94962.97;4962413;23;20055;-79
2021/07/24 00:49:13;;;;;;;63.63;26.77;;;;;;;19.42;57.78;94959.31;4939539;29;20035;-79
2021/07/24 00:51:44;;;;;;;53.03;24.20;;;;;;;19.37;57.59;94962.03;4924139;29;20031;-80
2021/07/24 00:54:09;;;;;;;49.50;20.42;;;;;;;19.35;57.73;94956.25;4940966;29;20031;-79
2021/07/24 00:56:34;;;;;;;31.15;15.13;;;;;;;19.28;57.92;94961.09;4957283;28;20042;-80
2021/07/24 00:59:00;;;;;;;22.25;11.82;;;;;;;19.22;58.12;94955.09;4940053;29;20412;-80
2021/07/24 01:01:25;;;;;;;21.67;11.77;;;;;;;19.22;58.03;94956.94;4926071;29;20122;-79
2021/07/24 01:04:16;;;;;;;21.65;11.70;;;;;;;19.22;58.03;94956.94;4927042;29;20086;-79
2021/07/24 01:06:43;;;;;;;20.35;11.18;;;;;;;19.17;58.54;94958.56;4958564;29;20615;-80
2021/07/24 01:09:08;;;;;;;16.95;11.77;;;;;;;19.18;58.39;94960.13;4953561;23;20030;-80
2021/07/24 01:11:35;;;;;;;15.70;10.70;;;;;;;19.13;58.31;94959.41;4979075;28;20038;-80
2021/07/24 01:14:00;;;;;;;15.02;10.10;;;;;;;19.05;58.75;94952.91;4945590;28;20509;-80
2021/07/24 01:16:26;;;;;;;17.35;10.18;;;;;;;19.02;58.53;94958.72;5043600;23;20046;-79
2021/07/24 01:18:51;;;;;;;10.68;8.90;;;;;;;18.99;58.61;94959.28;4975647;28;20035;-79
2021/07/24 01:21:27;;;;;;;17.20;9.75;;;;;;;18.96;58.97;94964.34;4976986;28;20046;-79
2021/07/24 01:23:52;;;;;;;15.20;9.15;;;;;;;18.96;58.82;94962.50;4960231;28;20019;-79
2021/07/24 01:26:28;;;;;;;16.63;8.85;;;;;;;18.93;59.03;94954.38;4959484;28;20063;-78
2021/07/24 01:28:53;;;;;;;13.13;8.27;;;;;;;18.88;59.09;94960.50;4964676;23;20047;-79
2021/07/24 01:31:19;;;;;;;13.73;9.13;;;;;;;18.85;59.14;94958.41;4942695;29;20040;-79
2021/07/24 01:33:44;;;;;;;16.40;8.35;;;;;;;18.85;59.14;94961.81;4959969;29;20042;-79
2021/07/24 01:36:10;;;;;;;17.83;8.73;;;;;;;18.80;59.09;94961.09;4926701;29;20027;-79
2021/07/24 01:38:39;;;;;;;11.05;8.45;;;;;;;18.76;59.31;94960.09;4909406;29;20035;-79
2021/07/24 01:41:08;;;;;;;15.82;9.23;;;;;;;18.75;59.04;94954.03;4941851;29;20042;-79
2021/07/24 01:43:34;;;;;;;9.27;8.20;;;;;;;18.71;59.08;94952.22;4958312;29;20055;-78
2021/07/24 01:45:59;;;;;;;11.70;8.63;;;;;;;18.66;58.93;94949.63;4974293;23;20118;-79
2021/07/24 01:53:45;;;;;;;24.52;9.55;;;;;;;18.55;59.99;94956.84;4931097;29;20042;-79
2021/07/24 01:56:10;;;;;;;16.75;9.13;;;;;;;18.50;59.66;94956.88;4925956;29;20032;-79
2021/07/24 01:58:36;;;;;;;13.30;9.00;;;;;;;18.43;60.09;94956.41;4963021;29;20127;-77
2021/07/24 02:01:05;;;;;;;13.88;10.00;;;;;;;18.42;60.48;94953.00;4970486;28;20047;-77
2021/07/24 02:03:40;;;;;;;19.98;9.20;;;;;;;18.47;60.08;94947.69;4969997;29;20058;-77
2021/07/24 02:06:06;;;;;;;14.88;9.15;;;;;;;18.50;59.24;94951.59;4952818;29;20067;-77
2021/07/24 02:08:32;;;;;;;11.18;8.45;;;;;;;18.50;59.74;94955.03;4950824;29;20462;-79
2021/07/24 02:10:59;;;;;;;12.50;8.35;;;;;;;18.53;59.36;94949.19;4927021;29;20035;-79
2021/07/24 02:13:24;;;;;;;22.20;9.15;;;;;;;18.52;59.53;94947.63;4925599;29;20038;-79
2021/07/24 02:15:49;;;;;;;10.93;8.25;;;;;;;18.50;59.38;94957.66;4941575;28;20031;-79
2021/07/24 02:18:16;;;;;;;13.80;9.80;;;;;;;18.47;59.26;94958.22;4959976;29;20035;-78
2021/07/24 02:20:45;;;;;;;13.30;9.20;;;;;;;18.46;59.71;94961.91;4960110;28;20046;-79
2021/07/24 02:23:10;;;;;;;16.80;8.93;;;;;;;18.44;60.04;94957.97;4972492;23;20174;-79
2021/07/24 02:25:45;;;;;;;22.55;9.40;;;;;;;18.45;59.95;94962.97;4958980;28;20467;-79
2021/07/24 02:28:10;;;;;;;11.23;8.65;;;;;;;18.45;59.90;94962.97;4958572;29;20034;-79
2021/07/24 02:30:36;;;;;;;21.13;9.57;;;;;;;18.41;60.03;94961.97;4958044;28;20122;-79
2021/07/24 02:33:01;;;;;;;13.80;9.15;;;;;;;18.40;60.23;94963.03;4959320;29;20303;-79
2021/07/24 02:35:27;;;;;;;17.77;9.38;;;;;;;18.39;59.92;94964.09;4958727;28;20035;-79
2021/07/24 02:37:52;;;;;;;14.00;9.50;;;;;;;18.37;59.91;94962.78;4958903;29;20023;-79
2021/07/24 02:40:18;;;;;;;15.50;9.13;;;;;;;18.29;60.06;94966.81;4963824;23;20047;-79
2021/07/24 02:42:43;;;;;;;15.07;8.85;;;;;;;18.25;60.24;94957.88;4958797;28;20039;-79
2021/07/24 02:45:10;;;;;;;18.33;10.43;;;;;;;18.21;60.38;94964.75;4959548;29;20042;-79
2021/07/24 02:47:38;;;;;;;20.02;8.77;;;;;;;18.21;60.39;94975.28;4965177;28;20040;-78
2021/07/24 02:50:04;;;;;;;16.08;8.68;;;;;;;18.22;60.12;94968.94;4917752;29;20030;-78
2021/07/24 02:52:29;;;;;;;12.65;8.57;;;;;;;18.22;60.60;94967.13;4943245;29;20418;-78
2021/07/24 02:54:55;;;;;;;18.73;9.45;;;;;;;18.22;60.53;94966.31;4954601;29;20686;-78
2021/07/24 02:57:23;;;;;;;16.05;9.52;;;;;;;18.23;60.58;94967.91;4954507;28;20487;-78
2021/07/24 02:59:49;;;;;;;17.63;9.90;;;;;;;18.22;60.50;94968.94;4956046;29;20089;-79
2021/07/24 03:02:18;;;;;;;18.73;10.07;;;;;;;18.24;60.17;94969.47;4958340;28;20039;-79
2021/07/24 03:04:43;;;;;;;20.05;9.57;;;;;;;18.23;60.92;94965.28;4957208;29;20031;-79
2021/07/24 03:07:09;;;;;;;17.20;9.68;;;;;;;18.20;60.63;94968.44;4957465;28;20099;-79
2021/07/24 03:09:37;;;;;;;24.52;9.98;;;;;;;18.18;60.48;94975.81;4957382;29;20043;-79
2021/07/24 03:12:04;;;;;;;12.38;9.27;;;;;;;18.18;60.34;94973.19;4958279;28;20098;-79
2021/07/24 03:14:29;;;;;;;23.25;10.40;;;;;;;18.18;60.65;94979.25;4958678;29;20070;-80
2021/07/24 03:16:55;;;;;;;16.50;10.88;;;;;;;18.19;60.53;94972.13;4940354;29;20446;-79
2021/07/24 03:19:20;;;;;;;30.05;15.55;;;;;;;18.23;60.32;94973.19;4959210;29;20032;-79
2021/07/24 03:21:47;;;;;;;28.55;10.88;;;;;;;18.22;60.10;94972.38;4958709;28;20396;-79
2021/07/24 03:24:12;;;;;;;22.85;9.82;;;;;;;18.23;60.32;94973.19;4966462;28;20050;-78
2021/07/24 03:26:41;;;;;;;22.35;11.85;;;;;;;18.26;60.42;94980.50;4926452;29;20411;-79
2021/07/24 03:29:07;;;;;;;25.35;10.13;;;;;;;18.29;59.83;94974.69;4943642;29;20525;-79
2021/07/24 03:31:32;;;;;;;23.10;10.30;;;;;;;18.29;60.03;94977.31;4945789;29;20035;-78
2021/07/24 03:33:58;;;;;;;27.58;10.43;;;;;;;18.35;59.88;94975.44;4970879;23;20400;-79
2021/07/24 03:36:23;;;;;;;41.38;10.48;;;;;;;18.32;59.98;94976.00;4958564;28;20035;-79
2021/07/24 03:38:49;;;;;;;43.70;10.90;;;;;;;18.42;59.66;94981.97;4956952;29;20031;-79
2021/07/24 03:41:14;;;;;;;30.25;11.15;;;;;;;18.52;59.29;94984.50;4940894;29;20042;-79
2021/07/24 03:43:42;;;;;;;26.17;9.98;;;;;;;18.59;59.23;94987.59;4909674;29;20028;-79
2021/07/24 03:46:17;;;;;;;26.77;9.93;;;;;;;18.69;59.11;94983.31;4957576;28;20039;-79
2021/07/24 03:48:43;;;;;;;24.23;9.40;;;;;;;18.79;58.73;94997.19;4923989;29;20562;-78
2021/07/24 03:51:13;;;;;;;29.45;10.00;;;;;;;18.83;58.30;94984.25;4921164;29;20038;-78
2021/07/24 03:53:39;;;;;;;23.23;9.98;;;;;;;18.96;58.05;94994.13;4935800;29;20031;-78
2021/07/24 03:56:05;;;;;;;22.83;8.70;;;;;;;19.06;57.44;94991.38;4955818;28;20043;-78
2021/07/24 03:58:31;;;;;;;15.85;8.57;;;;;;;19.12;57.62;95000.81;4920213;29;20148;-78
2021/07/24 04:00:56;;;;;;;17.63;9.60;;;;;;;19.18;57.53;94989.13;4955216;28;20031;-78
2021/07/24 04:03:24;;;;;;;15.45;8.07;;;;;;;19.28;56.71;94990.88;4954975;29;20047;-78
2021/07/24 04:05:51;;;;;;;22.23;9.65;;;;;;;19.43;56.89;95005.72;4957578;28;20051;-77
2021/07/24 04:08:17;;;;;;;24.77;9.75;;;;;;;19.55;56.66;94998.22;4969640;29;20039;-78
2021/07/24 04:10:44;;;;;;;13.70;9.15;;;;;;;19.74;55.65;95008.81;4952930;28;20035;-77
2021/07/24 04:13:10;;;;;;;17.00;8.77;;;;;;;20.90;53.05;95008.88;4952307;29;20045;-77
2021/07/24 04:15:36;;;;;;;14.13;7.93;;;;;;;22.61;48.09;95004.00;4925819;28;20028;-79
2021/07/24 04:18:03;;;;;;;19.33;8.45;;;;;;;24.20;44.23;95000.19;4955659;29;20062;-79
2021/07/24 04:20:28;;;;;;;21.77;8.10;;;;;;;25.62;41.00;95013.31;4922387;28;20027;-79
2021/07/24 04:22:54;;;;;;;26.90;8.60;;;;;;;26.97;38.29;95008.66;4956325;29;20042;-78
2021/07/24 04:25:19;;;;;;;22.15;8.38;;;;;;;28.13;35.58;95005.47;4981778;23;20043;-79
2021/07/24 04:27:45;;;;;;;28.13;9.10;;;;;;;29.23;33.82;95008.47;4956763;28;20047;-79
2021/07/24 04:30:10;;;;;;;29.80;8.40;;;;;;;30.32;32.36;95013.25;4956013;29;20063;-79
2021/07/24 04:32:36;;;;;;;26.75;8.32;;;;;;;31.34;29.89;95008.25;4958164;28;20467;-79
2021/07/24 04:35:03;;;;;;;39.70;8.60;;;;;;;32.31;28.84;95008.56;4942019;29;20058;-79
2021/07/24 04:37:29;;;;;;;33.28;7.85;;;;;;;33.28;27.39;95008.44;4961510;28;20031;-79
2021/07/24 04:39:55;;;;;;;18.67;7.00;;;;;;;34.15;25.67;95003.31;4928301;29;20529;-80
2021/07/24 04:42:20;;;;;;;14.20;6.28;;;;;;;34.97;24.19;95000.94;4959567;28;20027;-79
2021/07/24 04:44:46;;;;;;;9.55;5.78;;;;;;;35.88;23.33;94993.28;4961462;29;20050;-79
2021/07/24 04:47:11;;;;;;;10.10;5.10;;;;;;;36.32;22.06;95000.91;4957844;28;20043;-79
2021/07/24 04:49:42;;;;;;;9.02;5.07;;;;;;;37.06;20.53;94999.00;4960707;29;20043;-79
2021/07/24 04:52:07;;;;;;;22.13;6.00;;;;;;;37.44;20.39;95004.59;4944076;29;20122;-79
2021/07/24 04:54:33;;;;;;;8.48;5.57;;;;;;;37.12;20.36;95007.50;4943566;29;20046;-80
2021/07/24 04:56:59;;;;;;;8.25;5.53;;;;;;;36.85;21.04;95005.34;4943678;29;20031;-79
2021/07/24 04:59:24;;;;;;;10.88;5.70;;;;;;;37.32;20.18;95000.41;4959185;29;20035;-80
2021/07/24 05:01:50;;;;;;;11.73;5.43;;;;;;;37.51;19.74;95005.28;4960502;28;20039;-79
2021/07/24 05:04:15;;;;;;;6.85;5.22;;;;;;;37.41;20.01;95000.69;4960596;29;20035;-79
2021/07/24 05:06:41;;;;;;;9.38;5.13;;;;;;;38.15;18.68;95003.91;4960258;28;20038;-79
2021/07/24 05:09:06;;;;;;;8.80;4.93;;;;;;;38.54;18.34;95008.91;4943259;29;20035;-79
2021/07/24 05:11:34;;;;;;;7.50;5.88;;;;;;;38.86;18.18;95007.75;4942946;29;20043;-80
2021/07/24 05:13:59;;;;;;;8.20;5.22;;;;;;;39.32;17.81;95005.16;4958419;29;20035;-79
2021/07/24 05:16:25;;;;;;;10.38;5.85;;;;;;;39.88;17.64;95012.84;4959485;28;20065;-79
2021/07/24 05:18:50;;;;;;;7.93;5.35;;;;;;;40.59;16.64;95010.75;4961001;29;20031;-79
2021/07/24 05:21:19;;;;;;;7.22;4.93;;;;;;;41.15;16.03;95011.47;4960603;28;20061;-80
2021/07/24 05:23:44;;;;;;;14.07;4.75;;;;;;;41.78;15.84;95004.97;4988886;23;20050;-79
2021/07/24 05:26:16;;;;;;;8.98;5.43;;;;;;;42.39;15.07;95010.38;4957966;28;20039;-79
2021/07/24 05:28:42;;;;;;;6.10;4.35;;;;;;;42.90;14.61;95007.00;4960484;29;20043;-80
2021/07/24 05:31:17;;;;;;;12.68;5.72;;;;;;;43.42;14.39;95007.34;4942787;29;20102;-80
2021/07/24 05:33:48;;;;;;;12.23;5.05;;;;;;;43.94;13.71;95017.03;4924470;29;20036;-79
2021/07/24 05:36:14;;;;;;;11.68;4.60;;;;;;;44.35;12.87;95009.72;4957669;29;20049;-80
2021/07/24 05:38:42;;;;;;;11.68;5.55;;;;;;;44.64;12.85;95003.25;4959581;29;20419;-80
2021/07/24 05:41:07;;;;;;;13.35;5.05;;;;;;;45.08;12.56;95010.19;4960309;29;20066;-80
2021/07/24 05:43:33;;;;;;;7.40;4.57;;;;;;;45.63;12.72;95004.88;4927311;29;20043;-80
2021/07/24 05:46:01;;;;;;;20.40;4.63;;;;;;;46.26;11.88;95005.41;4959350;29;20031;-80
2021/07/24 05:48:27;;;;;;;10.90;4.57;;;;;;;46.79;11.68;94997.53;4942280;29;20027;-80
2021/07/24 05:51:07;;;;;;;8.63;4.78;;;;;;;47.26;11.31;94993.41;4960344;29;20062;-81
2021/07/24 05:53:33;;;;;;;12.77;4.82;;;;;;;47.64;11.04;94998.25;4936923;29;20495;-82
2021/07/24 05:56:00;;;;;;;17.02;4.93;;;;;;;47.81;10.39;95001.34;4924086;29;20126;-80
2021/07/24 05:58:34;;;;;;;7.45;4.60;;;;;;;48.10;10.28;95004.22;4942413;29;20035;-80
2021/07/24 06:00:59;;;;;;;14.88;4.80;;;;;;;48.45;10.14;94998.09;4928390;29;20027;-81
2021/07/24 06:03:28;;;;;;;11.30;4.50;;;;;;;48.85;9.93;95003.06;4959846;29;20049;-80
2021/07/24 06:05:53;;;;;;;13.05;4.10;;;;;;;49.16;9.71;94999.81;4942908;29;20423;-81
2021/07/24 06:08:19;;;;;;;9.18;4.10;;;;;;;49.38;9.72;95002.13;4942234;29;20065;-80
2021/07/24 06:10:44;;;;;;;16.75;4.72;;;;;;;49.23;9.60;95002.16;4958150;29;20404;-78
2021/07/24 06:13:11;;;;;;;11.20;4.60;;;;;;;49.21;9.79;95003.88;4970874;23;20047;-79
2021/07/24 06:15:45;;;;;;;13.02;4.30;;;;;;;49.43;9.41;95004.22;4940193;28;20039;-78
2021/07/24 06:18:11;;;;;;;13.35;4.47;;;;;;;49.61;9.65;94997.66;4958080;29;20039;-78
2021/07/24 06:20:37;;;;;;;13.50;4.18;;;;;;;49.45;9.38;95004.50;4941093;28;20034;-79
2021/07/24 06:23:04;;;;;;;12.48;4.15;;;;;;;48.62;9.60;95012.97;4926001;29;20030;-79
2021/07/24 06:25:29;;;;;;;10.20;4.25;;;;;;;48.77;9.88;95006.69;4936703;28;20495;-77
2021/07/24 06:27:55;;;;;;;7.28;4.05;;;;;;;48.76;10.12;95005.16;4958457;29;20030;-79
2021/07/24 06:30:20;;;;;;;8.43;4.25;;;;;;;48.25;10.06;95006.25;4958959;29;20032;-79
2021/07/24 06:32:45;;;;;;;13.32;4.20;;;;;;;47.78;10.36;94997.53;4910359;29;20031;-79
2021/07/24 06:35:11;;;;;;;5.45;4.20;;;;;;;47.41;10.69;94996.22;4958797;29;20035;-79
2021/07/24 06:37:36;;;;;;;9.20;4.85;;;;;;;46.69;11.35;94998.75;4958354;28;20039;-79
2021/07/24 06:40:03;;;;;;;13.40;4.65;;;;;;;46.54;11.11;94995.13;4958766;29;20486;-79
2021/07/24 06:42:29;;;;;;;8.20;4.32;;;;;;;46.82;10.92;94995.84;4939915;29;20085;-79
2021/07/24 06:44:54;;;;;;;9.75;4.60;;;;;;;46.69;10.89;94990.50;4958520;29;20519;-79
2021/07/24 06:47:21;;;;;;;8.40;3.60;;;;;;;45.67;12.16;94989.03;4961862;23;20072;-79
2021/07/24 06:49:46;;;;;;;14.40;4.35;;;;;;;44.88;12.20;94990.56;4963491;23;20051;-79
2021/07/24 06:52:11;;;;;;;16.23;4.78;;;;;;;44.46;12.38;94988.19;4959253;28;20042;-79
2021/07/24 06:54:38;;;;;;;22.58;4.82;;;;;;;44.01;12.47;94992.09;4957956;29;20068;-79
2021/07/24 06:57:03;;;;;;;17.63;4.82;;;;;;;43.06;13.38;94996.72;4940930;29;20491;-79
2021/07/24 06:59:28;;;;;;;9.95;4.35;;;;;;;42.41;14.20;94996.25;4962965;23;20047;-79
2021/07/24 07:01:54;;;;;;;9.43;4.57;;;;;;;41.53;14.82;94989.97;4958305;28;20042;-80
2021/07/24 07:04:19;;;;;;;15.98;4.55;;;;;;;41.07;15.38;94989.06;4958689;29;20039;-79
2021/07/24 07:06:45;;;;;;;9.50;5.03;;;;;;;40.85;15.65;94989.97;4958635;28;20533;-79
2021/07/24 07:09:10;;;;;;;8.45;4.68;;;;;;;40.03;16.21;94991.56;4971575;23;20102;-79
2021/07/24 07:11:36;;;;;;;11.52;5.15;;;;;;;39.80;16.60;94990.41;4958570;28;20078;-79
2021/07/24 07:14:01;;;;;;;17.42;5.30;;;;;;;39.35;16.93;94991.91;4941782;29;20038;-79
2021/07/24 07:16:27;;;;;;;12.88;5.05;;;;;;;38.58;17.55;94979.78;4941383;29;20027;-79
2021/07/24 07:18:52;;;;;;;9.60;4.97;;;;;;;38.01;17.90;94979.63;4955313;29;20035;-79
2021/07/24 07:21:18;;;;;;;12.10;5.72;;;;;;;37.50;18.89;94979.31;4958832;28;20043;-79
2021/07/24 07:23:43;;;;;;;10.80;5.80;;;;;;;37.07;19.49;94978.09;4958492;29;20058;-79
2021/07/24 07:26:10;;;;;;;17.17;4.95;;;;;;;36.83;19.71;94986.00;4941384;29;20031;-78
2021/07/24 07:28:36;;;;;;;13.63;5.45;;;;;;;36.65;19.89;94975.22;4941282;29;20070;-79
2021/07/24 07:31:01;;;;;;;14.40;5.28;;;;;;;36.53;20.26;94975.66;4957979;28;20062;-79
2021/07/24 07:33:26;;;;;;;12.90;5.10;;;;;;;36.29;20.07;94981.94;4957420;29;20039;-79
2021/07/24 07:35:52;;;;;;;15.20;5.57;;;;;;;35.97;20.09;94984.75;4957634;28;20034;-79
2021/07/24 07:38:17;;;;;;;11.70;5.55;;;;;;;35.58;20.60;94974.72;4961490;29;20032;-78
2021/07/24 07:40:43;;;;;;;12.48;5.22;;;;;;;35.40;21.03;94973.97;4959055;28;20407;-78
2021/07/24 07:43:08;;;;;;;8.68;5.20;;;;;;;35.45;21.31;94974.34;4959897;29;20348;-79
2021/07/24 07:45:34;;;;;;;11.13;5.45;;;;;;;35.33;21.28;94973.97;4957904;28;20094;-79
2021/07/24 07:47:59;;;;;;;22.33;6.25;;;;;;;35.21;21.23;94969.69;4958191;29;20035;-79
2021/07/24 07:50:25;;;;;;;10.98;5.47;;;;;;;34.97;21.95;94979.31;4957965;29;20095;-79
2021/07/24 07:52:50;;;;;;;16.63;5.70;;;;;;;34.80;21.99;94980.81;4956769;28;20043;-79
2021/07/24 07:55:25;;;;;;;18.38;5.55;;;;;;;34.69;21.98;94979.25;4957553;29;20035;-79
2021/07/24 07:57:50;;;;;;;8.73;5.28;;;;;;;34.22;22.62;94983.69;4957521;28;20037;-79
2021/07/24 08:00:17;;;;;;;7.82;5.13;;;;;;;33.80;23.34;94978.81;4957410;29;20031;-79
2021/07/24 08:02:53;;;;;;;13.68;6.05;;;;;;;33.74;23.57;94975.69;4924149;29;20050;-79
2021/07/24 08:05:18;;;;;;;21.23;5.80;;;;;;;33.78;22.99;94971.09;4924354;29;20090;-80
2021/07/24 08:07:44;;;;;;;9.50;4.80;;;;;;;33.89;22.75;94971.97;4956943;28;20039;-80
2021/07/24 08:10:10;;;;;;;19.52;4.75;;;;;;;33.87;22.41;94968.88;4955867;28;20030;-80
2021/07/24 08:12:35;;;;;;;6.03;4.38;;;;;;;33.92;22.68;94970.44;4961111;28;20035;-79
2021/07/24 08:17:30;;;;;;;7.88;5.03;;;;;;;32.99;24.02;94964.31;5000114;23;20055;-79
2021/07/24 08:20:11;;;;;;;11.38;5.20;;;;;;;32.65;24.21;94960.88;4960634;29;20046;-79
2021/07/24 08:22:37;;;;;;;11.70;5.18;;;;;;;32.69;24.48;94964.38;4975660;23;20047;-79
2021/07/24 08:25:03;;;;;;;16.33;5.15;;;;;;;32.80;24.19;94965.28;4960626;29;20035;-79
2021/07/24 08:27:30;;;;;;;7.78;4.47;;;;;;;32.78;24.11;94966.78;5002410;23;20043;-79
2021/07/24 08:29:56;;;;;;;8.20;4.78;;;;;;;32.92;24.03;94955.41;4941804;29;20245;-79
2021/07/24 08:32:21;;;;;;;9.02;4.47;;;;;;;33.01;24.26;94956.63;4964511;23;20047;-79
2021/07/24 08:34:53;;;;;;;12.20;4.63;;;;;;;32.86;23.45;94967.63;4960784;29;20063;-80
2021/07/24 08:37:18;;;;;;;;;;;;;;;32.92;22.98;94966.16;4960043;28;20035;-80
2021/07/24 08:39:44;;;;;;;6.72;4.45;;;;;;;32.87;23.37;94955.72;4961562;29;19918;-80
2021/07/24 08:42:32;;;;;;;5.55;4.43;;;;;;;32.66;24.26;94953.56;4960663;28;20030;-80
2021/07/24 08:44:58;;;;;;;15.23;5.13;;;;;;;32.63;24.22;94957.00;4945787;29;20074;-78
2021/07/24 08:47:24;;;;;;;16.00;4.10;;;;;;;32.45;24.29;94951.44;4927940;29;20039;-78
2021/07/24 08:49:49;;;;;;;11.55;4.95;;;;;;;31.73;24.96;94965.09;4960769;29;20112;-80
2021/07/24 08:52:18;;;;;;;8.57;4.45;;;;;;;31.65;24.83;94956.91;4943585;29;20038;-79
2021/07/24 08:54:43;;;;;;;8.80;4.28;;;;;;;31.76;24.85;94953.63;4942568;29;20031;-79
2021/07/24 08:57:09;;;;;;;7.35;4.25;;;;;;;31.92;24.73;94951.53;4960346;28;20086;-79
2021/07/24 08:59:35;;;;;;;9.02;4.90;;;;;;;31.78;25.29;94951.34;4942362;29;20116;-79
2021/07/24 09:02:00;;;;;;;6.13;4.75;;;;;;;31.49;25.71;94961.66;4961066;28;20087;-79
2021/07/24 09:04:26;;;;;;;5.93;4.20;;;;;;;30.96;26.31;94956.19;4960745;29;20038;-79
2021/07/24 09:06:59;;;;;;;9.48;4.75;;;;;;;30.77;26.94;94945.50;4958700;28;20032;-79
2021/07/24 09:09:24;;;;;;;14.23;5.05;;;;;;;30.36;26.81;94950.47;4944283;29;20106;-79
2021/07/24 09:11:50;;;;;;;5.03;4.43;;;;;;;30.23;27.41;94967.06;4911716;29;20027;-79
2021/07/24 09:14:15;;;;;;;12.82;4.35;;;;;;;30.19;27.12;94967.00;4959666;29;20110;-80
2021/07/24 09:16:41;;;;;;;17.83;5.15;;;;;;;30.09;27.03;94959.50;4911303;29;20023;-79
2021/07/24 09:19:07;;;;;;;14.88;4.38;;;;;;;30.09;27.45;94951.47;4947686;23;20498;-79
2021/07/24 09:21:32;;;;;;;13.70;5.13;;;;;;;30.44;27.14;94951.41;4973970;23;20039;-80
2021/07/24 09:24:21;;;;;;;15.63;4.20;;;;;;;30.80;27.28;94958.22;4915281;29;20043;-79
2021/07/24 09:26:46;;;;;;;8.70;5.10;;;;;;;30.74;27.54;94954.25;4960614;28;20034;-78
2021/07/24 09:29:14;;;;;;;7.72;4.53;;;;;;;29.58;28.43;94964.91;4960939;29;20028;-79
2021/07/24 09:31:39;;;;;;;8.23;4.15;;;;;;;28.82;29.53;94966.09;4959792;28;20134;-79
2021/07/24 09:34:06;;;;;;;12.65;4.38;;;;;;;28.16;31.30;94969.28;4959959;29;20419;-79
2021/07/24 09:36:32;;;;;;;10.10;4.10;;;;;;;27.91;31.52;94955.97;4927619;29;20467;-79
2021/07/24 09:39:11;;;;;;;11.68;4.82;;;;;;;28.00;31.08;94969.22;4927800;29;20039;-79
2021/07/24 09:41:38;;;;;;;11.60;4.60;;;;;;;28.02;31.47;94973.09;4943308;29;20373;-79
2021/07/24 09:44:03;;;;;;;9.05;4.90;;;;;;;27.89;32.53;94968.91;4939832;29;20054;-79
2021/07/24 09:46:29;;;;;;;8.65;4.38;;;;;;;28.25;32.75;94964.56;4960454;28;20463;-79
2021/07/24 09:48:54;;;;;;;14.23;5.45;;;;;;;28.28;33.01;94971.91;4942797;29;20027;-79
2021/07/24 09:51:35;;;;;;;11.88;4.60;;;;;;;28.59;32.17;94972.00;4960307;28;20027;-79
2021/07/24 09:54:01;;;;;;;7.00;4.53;;;;;;;28.48;32.38;94979.00;4926981;29;20495;-79
2021/07/24 09:56:41;;;;;;;12.48;4.25;;;;;;;28.20;32.81;94972.81;4959478;28;20065;-79
2021/07/24 09:59:23;;;;;;;7.35;5.15;;;;;;;27.55;34.24;94985.41;4940354;29;20126;-79
2021/07/24 10:01:55;;;;;;;;;;;;;;;27.11;34.94;94987.81;4960537;28;20066;-79
2021/07/24 10:04:32;;;;;;;11.00;4.45;;;;;;;27.48;33.79;94981.38;4956755;29;20001;-79
2021/07/24 10:07:04;;;;;;;8.80;4.72;;;;;;;27.39;33.97;95001.31;4959853;28;20074;-79
2021/07/24 10:09:32;;;;;;;7.85;4.45;;;;;;;27.32;33.48;94993.06;4924161;29;20114;-79
2021/07/24 10:11:59;;;;;;;7.65;4.50;;;;;;;27.49;34.00;94993.59;4948031;28;20118;-79
2021/07/24 10:14:27;;;;;;;9.63;4.50;;;;;;;27.37;32.08;94990.97;4958716;29;20023;-77
2021/07/24 10:16:53;;;;;;;9.70;4.07;;;;;;;27.42;32.06;94996.06;4959917;28;20086;-78
2021/07/24 10:19:19;;;;;;;8.20;4.63;;;;;;;27.40;32.58;94995.63;4942377;29;20046;-78
2021/07/24 10:21:46;;;;;;;7.47;4.57;;;;;;;27.50;32.86;95000.53;4941467;29;20035;-79
2021/07/24 10:24:11;;;;;;;7.25;4.72;;;;;;;27.47;32.11;95000.41;4925990;29;20055;-79
2021/07/24 10:26:37;;;;;;;12.07;5.25;;;;;;;27.32;31.98;94995.72;4959052;28;20039;-78
2021/07/24 10:29:05;;;;;;;7.50;4.78;;;;;;;27.56;31.47;94993.06;4929038;29;20031;-79
2021/07/24 10:31:48;;;;;;;15.13;4.70;;;;;;;27.56;30.65;95000.31;4924343;29;20031;-79
2021/07/24 10:34:13;;;;;;;6.40;4.15;;;;;;;27.64;29.53;94996.75;4941301;29;20027;-79
2021/07/24 10:36:40;;;;;;;12.35;4.85;;;;;;;27.55;29.79;95001.41;4925744;29;20567;-78
2021/07/24 10:39:05;;;;;;;6.53;4.60;;;;;;;27.46;30.34;94990.84;4926366;29;20027;-79
2021/07/24 10:41:31;;;;;;;6.63;4.30;;;;;;;26.95;31.16;95002.88;4941271;29;20395;-80
2021/07/24 10:43:58;;;;;;;4.85;4.45;;;;;;;26.59;30.75;95015.81;4941819;29;20411;-81
2021/07/24 10:46:44;;;;;;;9.73;5.15;;;;;;;26.45;34.74;95009.97;4942174;29;20039;-81
2021/07/24 10:49:21;;;;;;;9.60;4.50;;;;;;;26.42;34.83;95020.50;4942320;29;20042;-81
2021/07/24 10:51:54;;;;;;;7.15;5.32;;;;;;;25.79;36.18;95019.69;4941678;29;20515;-81
2021/07/24 10:54:19;;;;;;;9.02;5.60;;;;;;;25.19;38.24;95023.38;4925089;29;20036;-81
2021/07/24 10:56:45;;;;;;;7.03;5.63;;;;;;;24.62;40.52;95027.09;4925631;29;20092;-81
2021/07/24 10:59:13;;;;;;;9.55;5.70;;;;;;;24.28;41.60;95027.09;4942956;29;20023;-78
2021/07/24 11:01:58;;;;;;;8.73;5.80;;;;;;;23.90;42.42;95027.66;4960172;28;20039;-79
2021/07/24 11:04:36;;;;;;;10.02;6.15;;;;;;;23.72;45.58;95021.53;4959223;29;20035;-81
2021/07/24 11:07:16;;;;;;;6.88;5.68;;;;;;;23.72;44.80;95015.47;4957156;28;20479;-80
2021/07/24 11:09:46;;;;;;;9.68;6.20;;;;;;;23.87;43.92;95020.31;4957520;29;20480;-81
2021/07/24 11:12:15;;;;;;;12.25;6.13;;;;;;;24.12;40.67;95013.50;4925939;29;20038;-80
2021/07/24 11:14:43;;;;;;;13.00;5.93;;;;;;;24.43;40.15;95008.81;4939280;29;20414;-79
2021/07/24 11:17:11;;;;;;;9.35;5.63;;;;;;;24.69;38.24;95008.00;4958126;28;20536;-79
2021/07/24 11:19:36;;;;;;;8.50;5.85;;;;;;;25.01;38.03;95004.03;4958054;29;20031;-78
2021/07/24 11:22:14;;;;;;;11.00;5.63;;;;;;;25.36;37.53;95007.34;4958987;28;20097;-80
2021/07/24 11:25:06;;;;;;;6.82;5.80;;;;;;;25.62;36.27;95000.00;4956839;29;20110;-80
2021/07/24 11:27:33;;;;;;;10.35;5.53;;;;;;;25.88;36.32;94991.91;4957719;28;20027;-81
2021/07/24 11:30:04;;;;;;;6.03;5.30;;;;;;;26.16;35.87;94997.47;4958213;29;20125;-80
2021/07/24 11:32:33;;;;;;;7.28;5.55;;;;;;;26.22;35.35;94996.19;4958771;28;20082;-81
2021/07/24 11:35:05;;;;;;;8.05;5.47;;;;;;;26.33;35.76;94993.88;4941042;29;20156;-79
2021/07/24 11:37:47;;;;;;;6.30;5.65;;;;;;;26.32;35.43;94990.44;4958469;28;20110;-81